sensor_id;sensor_type;location;lat;lon;timestamp;pressure;altitude;pressure_sealevel;temperature;humidity
70745;BME280;59284;31.390;34.904;2022-09-21T00:00:48;93321.31;;;19.10;100.00
70745;BME280;59284;31.390;34.904;2022-09-21T00:03:14;93325.81;;;19.06;100.00
70745;BME280;59284;31.390;34.904;2022-09-21T00:05:46;93309.66;;;19.08;100.00
70745;BME280;59284;31.390;34.904;2022-09-21T00:08:15;93307.78;;;19.12;100.00
70745;BME280;59284;31.390;34.904;2022-09-21T00:10:41;93308.53;;;19.12;100.00
70745;BME280;59284;31.390;34.904;2022-09-21T00:13:09;93308.53;;;19.19;100.00
70745;BME280;59284;31.390;34.904;2022-09-21T00:15:56;93308.88;;;19.25;100.00
70745;BME280;59284;31.390;34.904;2022-09-21T00:18:29;93313.03;;;19.22;100.00
70745;BME280;59284;31.390;34.904;2022-09-21T00:21:24;93304.75;;;19.27;100.00
70745;BME280;59284;31.390;34.904;2022-09-21T00:24:16;93299.50;;;19.20;100.00
70745;BME280;59284;31.390;34.904;2022-09-21T00:27:04;93299.50;;;19.24;100.00
70745;BME280;59284;31.390;34.904;2022-09-21T00:29:30;93292.38;;;19.28;100.00
70745;BME280;59284;31.390;34.904;2022-09-21T00:31:55;93294.66;;;19.22;100.00
70745;BME280;59284;31.390;34.904;2022-09-21T00:34:21;93296.50;;;19.18;100.00
70745;BME280;59284;31.390;34.904;2022-09-21T00:36:47;93301.03;;;19.14;100.00
70745;BME280;59284;31.390;34.904;2022-09-21T00:39:13;93295.38;;;19.09;100.00
70745;BME280;59284;31.390;34.904;2022-09-21T00:41:39;93301.78;;;19.01;100.00
70745;BME280;59284;31.390;34.904;2022-09-21T00:47:00;93307.41;;;18.88;100.00
70745;BME280;59284;31.390;34.904;2022-09-21T00:49:27;93311.19;;;18.87;100.00
70745;BME280;59284;31.390;34.904;2022-09-21T00:51:54;93314.56;;;18.74;100.00
70745;BME280;59284;31.390;34.904;2022-09-21T00:54:30;93325.41;;;18.72;100.00
70745;BME280;59284;31.390;34.904;2022-09-21T00:57:25;93331.78;;;18.57;100.00
70745;BME280;59284;31.390;34.904;2022-09-21T01:00:15;93339.66;;;18.50;100.00
70745;BME280;59284;31.390;34.904;2022-09-21T01:03:25;93351.59;;;18.34;100.00
70745;BME280;59284;31.390;34.904;2022-09-21T01:06:21;93362.84;;;18.34;100.00
70745;BME280;59284;31.390;34.904;2022-09-21T01:09:15;93369.19;;;18.26;100.00
70745;BME280;59284;31.390;34.904;2022-09-21T01:21:29;93369.72;;;18.77;100.00
70745;BME280;59284;31.390;34.904;2022-09-21T01:30:22;93355.84;;;18.91;100.00
70745;BME280;59284;31.390;34.904;2022-09-21T01:33:22;93356.22;;;18.82;100.00
70745;BME280;59284;31.390;34.904;2022-09-21T01:35:56;93365.97;;;18.71;100.00
70745;BME280;59284;31.390;34.904;2022-09-21T01:38:53;93372.69;;;18.65;100.00
70745;BME280;59284;31.390;34.904;2022-09-21T01:41:39;93368.94;;;18.63;100.00
70745;BME280;59284;31.390;34.904;2022-09-21T01:44:51;93380.97;;;18.64;100.00
70745;BME280;59284;31.390;34.904;2022-09-21T01:47:51;93380.56;;;18.58;100.00
70745;BME280;59284;31.390;34.904;2022-09-21T01:50:37;93403.41;;;18.47;100.00
70745;BME280;59284;31.390;34.904;2022-09-21T01:56:32;93413.06;;;18.33;100.00
70745;BME280;59284;31.390;34.904;2022-09-21T01:59:58;93420.22;;;18.36;100.00
70745;BME280;59284;31.390;34.904;2022-09-21T02:03:21;93420.56;;;18.27;100.00
70745;BME280;59284;31.390;34.904;2022-09-21T02:11:20;93420.94;;;18.29;100.00
70745;BME280;59284;31.390;34.904;2022-09-21T02:14:20;93419.81;;;18.27;100.00
70745;BME280;59284;31.390;34.904;2022-09-21T02:20:51;93419.00;;;18.12;100.00
70745;BME280;59284;31.390;34.904;2022-09-21T02:24:04;93423.47;;;18.04;100.00
70745;BME280;59284;31.390;34.904;2022-09-21T02:38:40;93414.75;;;17.90;100.00
70745;BME280;59284;31.390;34.904;2022-09-21T02:41:23;93416.28;;;17.91;100.00
70745;BME280;59284;31.390;34.904;2022-09-21T02:44:48;93400.16;;;17.89;100.00
70745;BME280;59284;31.390;34.904;2022-09-21T02:48:14;93389.59;;;17.78;100.00
70745;BME280;59284;31.390;34.904;2022-09-21T02:54:42;93394.75;;;17.64;100.00
70745;BME280;59284;31.390;34.904;2022-09-21T02:57:35;93404.84;;;17.59;100.00
70745;BME280;59284;31.390;34.904;2022-09-21T03:00:23;93403.03;;;17.73;100.00
70745;BME280;59284;31.390;34.904;2022-09-21T03:03:39;93407.50;;;17.66;100.00
70745;BME280;59284;31.390;34.904;2022-09-21T03:06:47;93400.75;;;17.61;100.00
70745;BME280;59284;31.390;34.904;2022-09-21T03:09:24;93413.91;;;17.75;100.00
70745;BME280;59284;31.390;34.904;2022-09-21T03:12:19;93411.28;;;17.75;100.00
70745;BME280;59284;31.390;34.904;2022-09-21T03:15:11;93393.34;;;17.81;100.00
70745;BME280;59284;31.390;34.904;2022-09-21T03:18:22;93383.63;;;17.81;100.00
70745;BME280;59284;31.390;34.904;2022-09-21T03:21:31;93372.00;;;17.79;100.00
70745;BME280;59284;31.390;34.904;2022-09-21T03:24:49;93369.78;;;17.88;100.00
70745;BME280;59284;31.390;34.904;2022-09-21T03:27:22;93363.06;;;17.90;100.00
70745;BME280;59284;31.390;34.904;2022-09-21T03:30:41;93365.34;;;17.99;100.00
70745;BME280;59284;31.390;34.904;2022-09-21T03:33:21;93356.72;;;18.05;100.00
70745;BME280;59284;31.390;34.904;2022-09-21T03:35:54;93367.22;;;18.05;100.00
70745;BME280;59284;31.390;34.904;2022-09-21T03:38:57;93360.56;;;18.29;100.00
70745;BME280;59284;31.390;34.904;2022-09-21T03:42:11;93358.72;;;18.37;100.00
70745;BME280;59284;31.390;34.904;2022-09-21T03:45:21;93359.88;;;18.39;100.00
70745;BME280;59284;31.390;34.904;2022-09-21T03:48:30;93367.78;;;18.46;100.00
70745;BME280;59284;31.390;34.904;2022-09-21T03:51:24;93362.91;;;18.48;100.00
70745;BME280;59284;31.390;34.904;2022-09-21T03:53:50;93366.97;;;18.42;100.00
70745;BME280;59284;31.390;34.904;2022-09-21T03:56:19;93364.34;;;18.39;100.00
70745;BME280;59284;31.390;34.904;2022-09-21T03:58:47;93372.63;;;18.37;100.00
70745;BME280;59284;31.390;34.904;2022-09-21T04:01:15;93381.63;;;18.43;100.00
70745;BME280;59284;31.390;34.904;2022-09-21T04:03:44;93373.41;;;18.48;100.00
70745;BME280;59284;31.390;34.904;2022-09-21T04:06:11;93380.19;;;18.53;100.00
70745;BME280;59284;31.390;34.904;2022-09-21T04:08:38;93378.31;;;18.53;100.00
70745;BME280;59284;31.390;34.904;2022-09-21T04:11:15;93382.44;;;18.61;100.00
70745;BME280;59284;31.390;34.904;2022-09-21T04:13:47;93385.47;;;18.67;100.00
70745;BME280;59284;31.390;34.904;2022-09-21T04:16:16;93380.19;;;18.63;100.00
70745;BME280;59284;31.390;34.904;2022-09-21T04:18:42;93384.69;;;18.59;100.00
70745;BME280;59284;31.390;34.904;2022-09-21T04:21:08;93394.84;;;18.64;100.00
70745;BME280;59284;31.390;34.904;2022-09-21T04:23:35;93384.34;;;18.75;100.00
70745;BME280;59284;31.390;34.904;2022-09-21T04:26:02;93392.25;;;18.85;100.00
70745;BME280;59284;31.390;34.904;2022-09-21T04:28:28;93391.50;;;18.96;100.00
70745;BME280;59284;31.390;34.904;2022-09-21T04:30:54;93397.53;;;18.96;100.00
70745;BME280;59284;31.390;34.904;2022-09-21T04:33:29;93383.63;;;19.13;100.00
70745;BME280;59284;31.390;34.904;2022-09-21T04:35:56;93392.66;;;19.26;100.00
70745;BME280;59284;31.390;34.904;2022-09-21T04:38:21;93392.28;;;19.28;100.00
70745;BME280;59284;31.390;34.904;2022-09-21T04:40:55;93391.94;;;19.47;100.00
70745;BME280;59284;31.390;34.904;2022-09-21T04:43:21;93386.66;;;19.47;100.00
70745;BME280;59284;31.390;34.904;2022-09-21T04:45:47;93387.78;;;19.53;100.00
70745;BME280;59284;31.390;34.904;2022-09-21T04:48:14;93394.13;;;19.73;100.00
70745;BME280;59284;31.390;34.904;2022-09-21T04:50:40;93390.38;;;19.81;100.00
70745;BME280;59284;31.390;34.904;2022-09-21T04:53:08;93400.88;;;19.88;100.00
70745;BME280;59284;31.390;34.904;2022-09-21T04:55:33;93415.16;;;19.91;100.00
70745;BME280;59284;31.390;34.904;2022-09-21T04:57:59;93416.28;;;19.90;100.00
70745;BME280;59284;31.390;34.904;2022-09-21T05:00:51;93420.41;;;20.01;100.00
70745;BME280;59284;31.390;34.904;2022-09-21T05:03:48;93417.00;;;20.04;100.00
70745;BME280;59284;31.390;34.904;2022-09-21T05:06:17;93416.19;;;20.32;100.00
70745;BME280;59284;31.390;34.904;2022-09-21T05:09:11;93424.84;;;20.33;100.00
70745;BME280;59284;31.390;34.904;2022-09-21T05:11:57;93429.00;;;20.30;100.00
70745;BME280;59284;31.390;34.904;2022-09-21T05:14:23;93434.22;;;20.44;100.00
70745;BME280;59284;31.390;34.904;2022-09-21T05:19:33;93434.84;;;20.73;100.00
70745;BME280;59284;31.390;34.904;2022-09-21T05:22:00;93441.25;;;20.72;100.00
70745;BME280;59284;31.390;34.904;2022-09-21T05:24:28;93458.97;;;20.61;100.00
70745;BME280;59284;31.390;34.904;2022-09-21T05:26:54;93451.38;;;20.80;100.00
70745;BME280;59284;31.390;34.904;2022-09-21T05:29:20;93460.84;;;20.67;100.00
70745;BME280;59284;31.390;34.904;2022-09-21T05:32:01;93455.03;;;21.00;100.00
70745;BME280;59284;31.390;34.904;2022-09-21T05:35:06;93459.56;;;20.96;100.00
70745;BME280;59284;31.390;34.904;2022-09-21T05:40:23;93469.91;;;21.35;100.00
70745;BME280;59284;31.390;34.904;2022-09-21T05:43:28;93484.34;;;21.20;100.00
70745;BME280;59284;31.390;34.904;2022-09-21T05:46:41;93496.56;;;21.51;100.00
70745;BME280;59284;31.390;34.904;2022-09-21T05:49:38;93505.75;;;21.81;100.00
70745;BME280;59284;31.390;34.904;2022-09-21T05:52:37;93512.13;;;21.90;100.00
70745;BME280;59284;31.390;34.904;2022-09-21T05:57:54;93529.06;;;21.93;100.00
70745;BME280;59284;31.390;34.904;2022-09-21T06:00:36;93539.03;;;21.67;100.00
70745;BME280;59284;31.390;34.904;2022-09-21T06:03:16;93526.75;;;22.02;100.00
70745;BME280;59284;31.390;34.904;2022-09-21T06:05:46;93538.47;;;22.01;100.00
70745;BME280;59284;31.390;34.904;2022-09-21T06:08:12;93532.28;;;22.55;100.00
70745;BME280;59284;31.390;34.904;2022-09-21T06:10:47;93526.41;;;22.78;100.00
70745;BME280;59284;31.390;34.904;2022-09-21T06:13:14;93538.34;;;22.89;100.00
70745;BME280;59284;31.390;34.904;2022-09-21T06:15:39;93542.97;;;22.45;100.00
70745;BME280;59284;31.390;34.904;2022-09-21T06:18:09;93555.38;;;22.03;100.00
70745;BME280;59284;31.390;34.904;2022-09-21T06:20:50;93557.91;;;22.65;100.00
70745;BME280;59284;31.390;34.904;2022-09-21T06:23:32;93550.44;;;22.53;100.00
70745;BME280;59284;31.390;34.904;2022-09-21T06:26:39;93565.28;;;22.40;100.00
70745;BME280;59284;31.390;34.904;2022-09-21T06:29:20;93536.00;;;22.61;100.00
70745;BME280;59284;31.390;34.904;2022-09-21T06:31:54;93545.22;;;22.83;100.00
70745;BME280;59284;31.390;34.904;2022-09-21T06:34:43;93540.13;;;21.77;100.00
70745;BME280;59284;31.390;34.904;2022-09-21T06:37:24;93526.22;;;22.17;100.00
70745;BME280;59284;31.390;34.904;2022-09-21T06:39:50;93552.44;;;23.43;100.00
70745;BME280;59284;31.390;34.904;2022-09-21T06:42:17;93621.22;;;23.10;100.00
70745;BME280;59284;31.390;34.904;2022-09-21T06:44:49;93654.16;;;22.16;100.00
70745;BME280;59284;31.390;34.904;2022-09-21T06:47:54;93696.16;;;22.55;100.00
70745;BME280;59284;31.390;34.904;2022-09-21T06:51:10;93706.97;;;23.83;100.00
70745;BME280;59284;31.390;34.904;2022-09-21T06:53:37;93732.13;;;22.93;100.00
70745;BME280;59284;31.390;34.904;2022-09-21T06:56:07;93752.16;;;24.03;100.00
70745;BME280;59284;31.390;34.904;2022-09-21T06:58:34;94000.56;;;23.37;100.00
70745;BME280;59284;31.390;34.904;2022-09-21T07:01:14;94249.75;;;23.39;100.00
70745;BME280;59284;31.390;34.904;2022-09-21T07:03:41;94324.19;;;23.72;100.00
70745;BME280;59284;31.390;34.904;2022-09-21T07:06:09;94568.66;;;24.12;100.00
70745;BME280;59284;31.390;34.904;2022-09-21T07:08:40;94619.25;;;23.54;100.00
70745;BME280;59284;31.390;34.904;2022-09-21T07:11:07;94621.78;;;23.33;100.00
70745;BME280;59284;31.390;34.904;2022-09-21T07:13:34;94655.00;;;24.41;100.00
70745;BME280;59284;31.390;34.904;2022-09-21T07:16:07;94652.19;;;23.67;100.00
70745;BME280;59284;31.390;34.904;2022-09-21T07:18:49;94656.47;;;24.03;100.00
70745;BME280;59284;31.390;34.904;2022-09-21T07:21:33;94664.41;;;24.03;100.00
70745;BME280;59284;31.390;34.904;2022-09-21T07:24:10;94648.88;;;25.00;100.00
70745;BME280;59284;31.390;34.904;2022-09-21T07:26:36;94637.16;;;24.98;100.00
70745;BME280;59284;31.390;34.904;2022-09-21T07:29:01;94653.59;;;26.82;100.00
70745;BME280;59284;31.390;34.904;2022-09-21T07:31:27;94645.50;;;25.00;100.00
70745;BME280;59284;31.390;34.904;2022-09-21T07:33:57;94655.63;;;25.37;100.00
70745;BME280;59284;31.390;34.904;2022-09-21T07:36:24;94656.13;;;24.93;100.00
70745;BME280;59284;31.390;34.904;2022-09-21T07:38:55;94659.34;;;25.53;100.00
70745;BME280;59284;31.390;34.904;2022-09-21T07:41:20;94663.69;;;25.99;100.00
70745;BME280;59284;31.390;34.904;2022-09-21T07:43:47;94644.41;;;24.52;100.00
70745;BME280;59284;31.390;34.904;2022-09-21T07:46:23;94634.16;;;24.39;100.00
70745;BME280;59284;31.390;34.904;2022-09-21T07:48:53;94633.63;;;25.33;100.00
70745;BME280;59284;31.390;34.904;2022-09-21T07:51:19;94643.03;;;25.62;100.00
70745;BME280;59284;31.390;34.904;2022-09-21T07:53:53;94629.97;;;24.67;100.00
70745;BME280;59284;31.390;34.904;2022-09-21T07:56:23;94640.50;;;23.86;100.00
70745;BME280;59284;31.390;34.904;2022-09-21T07:58:49;94619.00;;;24.36;100.00
70745;BME280;59284;31.390;34.904;2022-09-21T08:01:38;94625.56;;;25.64;100.00
70745;BME280;59284;31.390;34.904;2022-09-21T08:04:20;94619.75;;;24.76;100.00
70745;BME280;59284;31.390;34.904;2022-09-21T08:06:47;94628.09;;;25.82;100.00
70745;BME280;59284;31.390;34.904;2022-09-21T08:09:13;94619.00;;;24.51;100.00
70745;BME280;59284;31.390;34.904;2022-09-21T08:11:45;94641.69;;;26.53;100.00
70745;BME280;59284;31.390;34.904;2022-09-21T08:14:16;94636.44;;;26.90;100.00
70745;BME280;59284;31.390;34.904;2022-09-21T08:16:57;94624.59;;;25.05;100.00
70745;BME280;59284;31.390;34.904;2022-09-21T08:19:23;94620.19;;;26.33;100.00
70745;BME280;59284;31.390;34.904;2022-09-21T08:21:51;94610.47;;;25.37;100.00
70745;BME280;59284;31.390;34.904;2022-09-21T08:24:28;94621.50;;;25.32;100.00
70745;BME280;59284;31.390;34.904;2022-09-21T08:26:58;94613.31;;;26.80;100.00
70745;BME280;59284;31.390;34.904;2022-09-21T08:29:24;94627.03;;;26.79;100.00
70745;BME280;59284;31.390;34.904;2022-09-21T08:31:55;94617.31;;;26.07;100.00
70745;BME280;59284;31.390;34.904;2022-09-21T08:34:20;94618.72;;;25.63;100.00
70745;BME280;59284;31.390;34.904;2022-09-21T08:37:00;94616.47;;;25.58;100.00
70745;BME280;59284;31.390;34.904;2022-09-21T08:39:25;94588.97;;;25.03;100.00
70745;BME280;59284;31.390;34.904;2022-09-21T08:44:48;94603.69;;;26.01;100.00
70745;BME280;59284;31.390;34.904;2022-09-21T08:47:23;94603.78;;;26.42;100.00
70745;BME280;59284;31.390;34.904;2022-09-21T08:49:57;94606.88;;;27.49;100.00
70745;BME280;59284;31.390;34.904;2022-09-21T08:52:31;94616.88;;;26.19;100.00
70745;BME280;59284;31.390;34.904;2022-09-21T08:55:11;94615.44;;;26.11;100.00
70745;BME280;59284;31.390;34.904;2022-09-21T08:57:42;94601.53;;;26.37;100.00
70745;BME280;59284;31.390;34.904;2022-09-21T09:00:16;94595.03;;;25.87;100.00
70745;BME280;59284;31.390;34.904;2022-09-21T09:05:45;94650.88;;;32.16;100.00
70745;BME280;59284;31.390;34.904;2022-09-21T09:11:45;94618.84;;;28.21;100.00
70745;BME280;59284;31.390;34.904;2022-09-21T09:14:30;94652.81;;;30.43;100.00
70745;BME280;59284;31.390;34.904;2022-09-21T09:17:13;94639.41;;;30.60;100.00
70745;BME280;59284;31.390;34.904;2022-09-21T09:19:58;94626.91;;;27.60;100.00
70745;BME280;59284;31.390;34.904;2022-09-21T09:22:32;94596.28;;;26.71;100.00
70745;BME280;59284;31.390;34.904;2022-09-21T09:25:05;94613.63;;;28.37;100.00
70745;BME280;59284;31.390;34.904;2022-09-21T09:27:43;94612.06;;;29.84;100.00
70745;BME280;59284;31.390;34.904;2022-09-21T09:30:23;94626.16;;;30.20;100.00
70745;BME280;59284;31.390;34.904;2022-09-21T09:33:10;94628.19;;;29.61;100.00
70745;BME280;59284;31.390;34.904;2022-09-21T09:35:49;94551.56;;;26.96;100.00
70745;BME280;59284;31.390;34.904;2022-09-21T09:47:05;94586.53;;;27.62;100.00
70745;BME280;59284;31.390;34.904;2022-09-21T09:52:48;94586.47;;;29.47;100.00
70745;BME280;59284;31.390;34.904;2022-09-21T09:55:27;94610.69;;;28.78;100.00
70745;BME280;59284;31.390;34.904;2022-09-21T10:00:54;94583.44;;;27.67;100.00
70745;BME280;59284;31.390;34.904;2022-09-21T10:03:24;94590.31;;;29.07;100.00
70745;BME280;59284;31.390;34.904;2022-09-21T10:05:53;94596.81;;;29.65;100.00
70745;BME280;59284;31.390;34.904;2022-09-21T10:08:48;94582.66;;;29.84;100.00
70745;BME280;59284;31.390;34.904;2022-09-21T10:11:16;94594.22;;;29.22;100.00
70745;BME280;59284;31.390;34.904;2022-09-21T10:13:46;94556.06;;;27.90;100.00
70745;BME280;59284;31.390;34.904;2022-09-21T10:18:59;94592.88;;;32.44;100.00
70745;BME280;59284;31.390;34.904;2022-09-21T10:21:37;94589.03;;;30.06;100.00
70745;BME280;59284;31.390;34.904;2022-09-21T10:24:35;94560.72;;;27.82;100.00
70745;BME280;59284;31.390;34.904;2022-09-21T10:27:42;94539.19;;;27.12;100.00
70745;BME280;59284;31.390;34.904;2022-09-21T10:32:55;94553.97;;;28.04;100.00
70745;BME280;59284;31.390;34.904;2022-09-21T10:35:29;94599.19;;;33.62;100.00
70745;BME280;59284;31.390;34.904;2022-09-21T10:38:17;94563.16;;;27.73;100.00
70745;BME280;59284;31.390;34.904;2022-09-21T10:40:46;94558.28;;;26.70;100.00
70745;BME280;59284;31.390;34.904;2022-09-21T10:43:33;94554.66;;;28.31;100.00
70745;BME280;59284;31.390;34.904;2022-09-21T10:46:14;94607.28;;;32.25;100.00
70745;BME280;59284;31.390;34.904;2022-09-21T10:48:47;94583.16;;;31.04;100.00
70745;BME280;59284;31.390;34.904;2022-09-21T10:51:26;94560.09;;;27.14;100.00
70745;BME280;59284;31.390;34.904;2022-09-21T10:53:57;94558.34;;;27.31;100.00
70745;BME280;59284;31.390;34.904;2022-09-21T10:56:26;94584.19;;;31.64;100.00
70745;BME280;59284;31.390;34.904;2022-09-21T11:01:44;94566.69;;;28.86;100.00
70745;BME280;59284;31.390;34.904;2022-09-21T11:07:29;94584.63;;;33.81;100.00
70745;BME280;59284;31.390;34.904;2022-09-21T11:09:52;94582.38;;;35.32;100.00
70745;BME280;59284;31.390;34.904;2022-09-21T11:12:33;94565.16;;;27.65;100.00
70745;BME280;59284;31.390;34.904;2022-09-21T11:18:39;94571.75;;;31.96;100.00
70745;BME280;59284;31.390;34.904;2022-09-21T11:21:53;94563.84;;;29.88;100.00
70745;BME280;59284;31.390;34.904;2022-09-21T11:24:29;94575.38;;;27.97;100.00
70745;BME280;59284;31.390;34.904;2022-09-21T11:27:26;94557.78;;;27.76;100.00
70745;BME280;59284;31.390;34.904;2022-09-21T11:30:11;94571.34;;;33.03;100.00
70745;BME280;59284;31.390;34.904;2022-09-21T11:33:19;94576.72;;;28.32;100.00
70745;BME280;59284;31.390;34.904;2022-09-21T11:36:15;94553.78;;;27.01;100.00
70745;BME280;59284;31.390;34.904;2022-09-21T11:56:52;94577.72;;;34.78;100.00
70745;BME280;59284;31.390;34.904;2022-09-21T12:11:32;94558.41;;;34.03;100.00
70745;BME280;59284;31.390;34.904;2022-09-21T12:17:21;94564.59;;;34.22;100.00
70745;BME280;59284;31.390;34.904;2022-09-21T12:20:03;94564.03;;;31.72;100.00
70745;BME280;59284;31.390;34.904;2022-09-21T12:22:40;94561.09;;;35.34;100.00
70745;BME280;59284;31.390;34.904;2022-09-21T12:25:19;94572.00;;;30.77;100.00
70745;BME280;59284;31.390;34.904;2022-09-21T12:27:47;94555.34;;;34.14;100.00
70745;BME280;59284;31.390;34.904;2022-09-21T12:30:18;94556.75;;;30.90;100.00
70745;BME280;59284;31.390;34.904;2022-09-21T12:35:46;94546.44;;;30.60;100.00
70745;BME280;59284;31.390;34.904;2022-09-21T12:41:34;94548.84;;;31.28;100.00
70745;BME280;59284;31.390;34.904;2022-09-21T12:44:21;94560.41;;;32.64;100.00
70745;BME280;59284;31.390;34.904;2022-09-21T12:47:00;94560.00;;;28.08;100.00
70745;BME280;59284;31.390;34.904;2022-09-21T12:49:38;94559.06;;;34.16;100.00
70745;BME280;59284;31.390;34.904;2022-09-21T12:52:25;94559.50;;;32.20;100.00
70745;BME280;59284;31.390;34.904;2022-09-21T13:00:33;94560.53;;;33.47;100.00
70745;BME280;59284;31.390;34.904;2022-09-21T13:03:23;94566.53;;;32.86;100.00
70745;BME280;59284;31.390;34.904;2022-09-21T13:08:42;94577.56;;;30.54;100.00
70745;BME280;59284;31.390;34.904;2022-09-21T13:11:12;94561.28;;;26.76;100.00
70745;BME280;59284;31.390;34.904;2022-09-21T13:13:58;94567.97;;;32.31;100.00
70745;BME280;59284;31.390;34.904;2022-09-21T13:16:33;94560.38;;;31.12;100.00
70745;BME280;59284;31.390;34.904;2022-09-21T13:19:15;94568.00;;;34.04;100.00
70745;BME280;59284;31.390;34.904;2022-09-21T13:21:42;94564.38;;;33.58;100.00
70745;BME280;59284;31.390;34.904;2022-09-21T13:24:29;94541.94;;;33.52;100.00
70745;BME280;59284;31.390;34.904;2022-09-21T13:26:56;94557.22;;;34.80;100.00
70745;BME280;59284;31.390;34.904;2022-09-21T13:29:30;94559.06;;;31.71;100.00
70745;BME280;59284;31.390;34.904;2022-09-21T13:34:46;94574.84;;;31.94;100.00
70745;BME280;59284;31.390;34.904;2022-09-21T13:37:27;94565.25;;;34.35;100.00
70745;BME280;59284;31.390;34.904;2022-09-21T13:47:45;94574.56;;;33.42;100.00
70745;BME280;59284;31.390;34.904;2022-09-21T13:50:40;94574.56;;;34.03;100.00
70745;BME280;59284;31.390;34.904;2022-09-21T13:55:52;94576.78;;;33.12;100.00
70745;BME280;59284;31.390;34.904;2022-09-21T13:58:35;94576.78;;;32.31;100.00
70745;BME280;59284;31.390;34.904;2022-09-21T14:01:22;94569.41;;;31.98;100.00
70745;BME280;59284;31.390;34.904;2022-09-21T14:03:59;94570.69;;;32.18;100.00
70745;BME280;59284;31.390;34.904;2022-09-21T14:06:29;94572.69;;;30.36;100.00
70745;BME280;59284;31.390;34.904;2022-09-21T14:11:45;94593.94;;;29.92;100.00
70745;BME280;59284;31.390;34.904;2022-09-21T14:16:57;94576.97;;;31.07;100.00
70745;BME280;59284;31.390;34.904;2022-09-21T14:29:47;94587.84;;;29.36;100.00
70745;BME280;59284;31.390;34.904;2022-09-21T14:32:20;94581.88;;;28.89;100.00
70745;BME280;59284;31.390;34.904;2022-09-21T14:34:59;94573.06;;;24.99;100.00
70745;BME280;59284;31.390;34.904;2022-09-21T14:37:37;94584.13;;;26.29;100.00
70745;BME280;59284;31.390;34.904;2022-09-21T14:40:32;94584.81;;;28.94;100.00
70745;BME280;59284;31.390;34.904;2022-09-21T14:43:08;94577.94;;;28.50;100.00
70745;BME280;59284;31.390;34.904;2022-09-21T14:45:52;94588.59;;;26.39;100.00
70745;BME280;59284;31.390;34.904;2022-09-21T14:48:43;94571.16;;;28.69;100.00
70745;BME280;59284;31.390;34.904;2022-09-21T14:51:25;94578.91;;;28.17;100.00
70745;BME280;59284;31.390;34.904;2022-09-21T14:54:22;94578.59;;;27.85;100.00
70745;BME280;59284;31.390;34.904;2022-09-21T15:00:21;94575.59;;;27.83;100.00
70745;BME280;59284;31.390;34.904;2022-09-21T15:03:39;94576.63;;;27.32;100.00
70745;BME280;59284;31.390;34.904;2022-09-21T15:12:26;94581.19;;;25.54;100.00
70745;BME280;59284;31.390;34.904;2022-09-21T15:17:58;94577.69;;;23.86;100.00
70745;BME280;59284;31.390;34.904;2022-09-21T15:20:27;94573.53;;;23.99;100.00
70745;BME280;59284;31.390;34.904;2022-09-21T15:22:58;94569.00;;;23.96;100.00
70745;BME280;59284;31.390;34.904;2022-09-21T15:25:32;94565.50;;;23.39;100.00
70745;BME280;59284;31.390;34.904;2022-09-21T15:27:59;94564.31;;;23.33;100.00
70745;BME280;59284;31.390;34.904;2022-09-21T15:30:27;94564.25;;;23.12;100.00
70745;BME280;59284;31.390;34.904;2022-09-21T15:32:56;94518.72;;;22.06;100.00
70745;BME280;59284;31.390;34.904;2022-09-21T15:35:25;94489.25;;;22.01;100.00
70745;BME280;59284;31.390;34.904;2022-09-21T15:37:52;94485.56;;;22.16;100.00
70745;BME280;59284;31.390;34.904;2022-09-21T15:40:30;94485.03;;;21.93;100.00
70745;BME280;59284;31.390;34.904;2022-09-21T15:46:00;94409.84;;;21.83;100.00
70745;BME280;59284;31.390;34.904;2022-09-21T15:48:31;94276.69;;;21.81;100.00
70745;BME280;59284;31.390;34.904;2022-09-21T15:51:08;94152.91;;;21.54;100.00
70745;BME280;59284;31.390;34.904;2022-09-21T15:53:48;94047.34;;;21.61;100.00
70745;BME280;59284;31.390;34.904;2022-09-21T15:56:19;93972.69;;;21.64;100.00
70745;BME280;59284;31.390;34.904;2022-09-21T15:58:48;93885.97;;;21.63;100.00
70745;BME280;59284;31.390;34.904;2022-09-21T16:01:16;93835.44;;;21.54;100.00
70745;BME280;59284;31.390;34.904;2022-09-21T16:03:46;93799.31;;;21.33;100.00
70745;BME280;59284;31.390;34.904;2022-09-21T16:06:28;93769.56;;;21.12;100.00
70745;BME280;59284;31.390;34.904;2022-09-21T16:11:52;93729.59;;;21.02;100.00
70745;BME280;59284;31.390;34.904;2022-09-21T16:14:18;93728.88;;;20.88;100.00
70745;BME280;59284;31.390;34.904;2022-09-21T16:22:26;93720.22;;;20.77;100.00
70745;BME280;59284;31.390;34.904;2022-09-21T16:24:58;93732.28;;;20.60;100.00
70745;BME280;59284;31.390;34.904;2022-09-21T16:27:29;93732.63;;;20.59;100.00
70745;BME280;59284;31.390;34.904;2022-09-21T16:29:57;93740.19;;;20.67;100.00
70745;BME280;59284;31.390;34.904;2022-09-21T16:32:31;93742.44;;;20.44;100.00
70745;BME280;59284;31.390;34.904;2022-09-21T16:35:24;93742.03;;;20.39;100.00
70745;BME280;59284;31.390;34.904;2022-09-21T16:37:59;93742.78;;;20.32;100.00
70745;BME280;59284;31.390;34.904;2022-09-21T16:40:26;93733.75;;;20.22;100.00
70745;BME280;59284;31.390;34.904;2022-09-21T16:42:53;93741.28;;;20.31;100.00
70745;BME280;59284;31.390;34.904;2022-09-21T16:45:24;93741.66;;;20.33;100.00
70745;BME280;59284;31.390;34.904;2022-09-21T16:47:50;93739.38;;;20.21;100.00
70745;BME280;59284;31.390;34.904;2022-09-21T16:50:17;93737.91;;;20.23;100.00
70745;BME280;59284;31.390;34.904;2022-09-21T16:52:45;93726.16;;;20.07;100.00